sensor_id;sensor_type;location;lat;lon;timestamp;pressure;altitude;pressure_sealevel;temperature;humidity
72925;BME280;61070;50.794;7.054;2022-09-09T00:01:08;100312.34;;;16.87;78.23
72925;BME280;61070;50.794;7.054;2022-09-09T00:04:00;100311.53;;;16.85;78.29
72925;BME280;61070;50.794;7.054;2022-09-09T00:06:45;100318.53;;;16.89;78.09
72925;BME280;61070;50.794;7.054;2022-09-09T00:09:25;100309.88;;;16.82;78.79
72925;BME280;61070;50.794;7.054;2022-09-09T00:11:54;100302.13;;;16.76;79.29
72925;BME280;61070;50.794;7.054;2022-09-09T00:14:34;100298.91;;;16.68;79.22
72925;BME280;61070;50.794;7.054;2022-09-09T00:17:06;100296.97;;;16.72;79.05
72925;BME280;61070;50.794;7.054;2022-09-09T00:19:51;100302.81;;;16.59;79.31
72925;BME280;61070;50.794;7.054;2022-09-09T00:22:23;100296.00;;;16.52;80.17
72925;BME280;61070;50.794;7.054;2022-09-09T00:24:56;100295.53;;;16.43;80.51
72925;BME280;61070;50.794;7.054;2022-09-09T00:27:37;100294.72;;;16.41;80.67
72925;BME280;61070;50.794;7.054;2022-09-09T00:32:36;100304.59;;;16.39;81.22
72925;BME280;61070;50.794;7.054;2022-09-09T00:35:22;100304.66;;;16.37;81.29
72925;BME280;61070;50.794;7.054;2022-09-09T00:37:52;100304.53;;;16.40;81.86
72925;BME280;61070;50.794;7.054;2022-09-09T00:49:23;100299.47;;;16.34;81.84
72925;BME280;61070;50.794;7.054;2022-09-09T00:55:16;100302.19;;;16.33;82.10
72925;BME280;61070;50.794;7.054;2022-09-09T00:57:45;100308.34;;;16.35;81.62
72925;BME280;61070;50.794;7.054;2022-09-09T01:00:27;100315.50;;;16.34;81.88
72925;BME280;61070;50.794;7.054;2022-09-09T01:06:12;100313.88;;;16.30;81.84
72925;BME280;61070;50.794;7.054;2022-09-09T01:08:48;100311.16;;;16.32;81.70
72925;BME280;61070;50.794;7.054;2022-09-09T01:11:24;100296.09;;;16.29;81.64
72925;BME280;61070;50.794;7.054;2022-09-09T01:13:58;100310.41;;;16.28;81.89
72925;BME280;61070;50.794;7.054;2022-09-09T01:16:28;100297.25;;;16.23;81.92
72925;BME280;61070;50.794;7.054;2022-09-09T01:18:55;100297.16;;;16.25;81.81
72925;BME280;61070;50.794;7.054;2022-09-09T01:24:54;100294.50;;;16.25;81.59
72925;BME280;61070;50.794;7.054;2022-09-09T01:27:21;100295.81;;;16.15;82.43
72925;BME280;61070;50.794;7.054;2022-09-09T01:29:48;100298.63;;;16.12;82.63
72925;BME280;61070;50.794;7.054;2022-09-09T01:32:40;100297.97;;;16.05;83.17
72925;BME280;61070;50.794;7.054;2022-09-09T01:37:57;100298.97;;;16.02;82.95
72925;BME280;61070;50.794;7.054;2022-09-09T01:40:24;100298.91;;;16.04;82.53
72925;BME280;61070;50.794;7.054;2022-09-09T01:42:50;100301.84;;;15.98;83.26
72925;BME280;61070;50.794;7.054;2022-09-09T01:45:15;100306.34;;;15.97;83.10
72925;BME280;61070;50.794;7.054;2022-09-09T01:47:41;100308.81;;;16.02;83.20
72925;BME280;61070;50.794;7.054;2022-09-09T01:50:08;100306.06;;;16.04;83.10
72925;BME280;61070;50.794;7.054;2022-09-09T01:52:37;100297.97;;;16.05;83.42
72925;BME280;61070;50.794;7.054;2022-09-09T01:55:03;100305.94;;;16.07;83.30
72925;BME280;61070;50.794;7.054;2022-09-09T02:00:20;100303.69;;;16.18;82.95
72925;BME280;61070;50.794;7.054;2022-09-09T02:02:55;100309.16;;;16.15;83.16
72925;BME280;61070;50.794;7.054;2022-09-09T02:05:38;100307.28;;;16.17;82.94
72925;BME280;61070;50.794;7.054;2022-09-09T02:08:09;100307.22;;;16.18;83.42
72925;BME280;61070;50.794;7.054;2022-09-09T02:13:13;100310.41;;;16.28;82.41
72925;BME280;61070;50.794;7.054;2022-09-09T02:18:40;100307.84;;;16.25;82.68
72925;BME280;61070;50.794;7.054;2022-09-09T02:21:07;100308.72;;;16.25;82.69
72925;BME280;61070;50.794;7.054;2022-09-09T02:23:37;100309.53;;;16.27;83.19
72925;BME280;61070;50.794;7.054;2022-09-09T02:26:05;100306.84;;;16.27;82.85
72925;BME280;61070;50.794;7.054;2022-09-09T02:28:34;100301.34;;;16.32;82.77
72925;BME280;61070;50.794;7.054;2022-09-09T02:31:01;100303.00;;;16.35;82.33
72925;BME280;61070;50.794;7.054;2022-09-09T02:33:30;100302.78;;;16.39;82.29
72925;BME280;61070;50.794;7.054;2022-09-09T02:36:01;100312.38;;;16.45;81.79
72925;BME280;61070;50.794;7.054;2022-09-09T02:38:30;100307.03;;;16.45;81.32
72925;BME280;61070;50.794;7.054;2022-09-09T02:40:58;100307.03;;;16.45;81.62
72925;BME280;61070;50.794;7.054;2022-09-09T02:43:24;100300.81;;;16.44;81.68
72925;BME280;61070;50.794;7.054;2022-09-09T02:46:45;100294.53;;;16.45;80.95
72925;BME280;61070;50.794;7.054;2022-09-09T02:48:55;100300.03;;;16.42;81.17
72925;BME280;61070;50.794;7.054;2022-09-09T02:54:25;100290.59;;;16.54;80.32
72925;BME280;61070;50.794;7.054;2022-09-09T02:56:53;100291.47;;;16.54;81.53
72925;BME280;61070;50.794;7.054;2022-09-09T02:59:20;100286.13;;;16.54;80.78
72925;BME280;61070;50.794;7.054;2022-09-09T03:01:46;100289.59;;;16.56;81.14
72925;BME280;61070;50.794;7.054;2022-09-09T03:04:12;100286.84;;;16.58;80.79
72925;BME280;61070;50.794;7.054;2022-09-09T03:06:37;100291.19;;;16.60;80.84
72925;BME280;61070;50.794;7.054;2022-09-09T03:09:02;100286.78;;;16.59;80.09
72925;BME280;61070;50.794;7.054;2022-09-09T03:11:28;100277.88;;;16.59;79.92
72925;BME280;61070;50.794;7.054;2022-09-09T03:13:54;100277.75;;;16.62;80.02
72925;BME280;61070;50.794;7.054;2022-09-09T03:16:22;100284.75;;;16.65;79.66
72925;BME280;61070;50.794;7.054;2022-09-09T03:18:47;100278.63;;;16.63;80.18
72925;BME280;61070;50.794;7.054;2022-09-09T03:21:12;100282.22;;;16.62;80.17
72925;BME280;61070;50.794;7.054;2022-09-09T03:23:38;100273.41;;;16.59;80.51
72925;BME280;61070;50.794;7.054;2022-09-09T03:26:03;100277.03;;;16.58;80.29
72925;BME280;61070;50.794;7.054;2022-09-09T03:28:28;100286.06;;;16.56;80.43
72925;BME280;61070;50.794;7.054;2022-09-09T03:31:00;100292.38;;;16.53;80.25
72925;BME280;61070;50.794;7.054;2022-09-09T03:33:25;100293.22;;;16.55;80.30
72925;BME280;61070;50.794;7.054;2022-09-09T03:35:51;100292.34;;;16.55;80.69
72925;BME280;61070;50.794;7.054;2022-09-09T03:38:17;100287.84;;;16.55;80.63
72925;BME280;61070;50.794;7.054;2022-09-09T03:40:49;100294.16;;;16.54;80.35
72925;BME280;61070;50.794;7.054;2022-09-09T03:43:15;100293.22;;;16.55;80.34
72925;BME280;61070;50.794;7.054;2022-09-09T03:45:45;100291.41;;;16.56;80.05
72925;BME280;61070;50.794;7.054;2022-09-09T03:48:12;100292.78;;;16.65;80.00
72925;BME280;61070;50.794;7.054;2022-09-09T03:50:38;100284.75;;;16.65;79.99
72925;BME280;61070;50.794;7.054;2022-09-09T03:53:03;100282.41;;;16.79;78.83
72925;BME280;61070;50.794;7.054;2022-09-09T03:55:28;100285.34;;;16.73;79.29
72925;BME280;61070;50.794;7.054;2022-09-09T03:57:53;100285.47;;;16.70;79.49
72925;BME280;61070;50.794;7.054;2022-09-09T04:00:19;100278.41;;;16.69;79.68
72925;BME280;61070;50.794;7.054;2022-09-09T04:02:44;100278.41;;;16.69;79.67
72925;BME280;61070;50.794;7.054;2022-09-09T04:05:10;100280.13;;;16.70;79.42
72925;BME280;61070;50.794;7.054;2022-09-09T04:07:36;100274.63;;;16.73;79.55
72925;BME280;61070;50.794;7.054;2022-09-09T04:10:01;100275.75;;;16.67;80.01
72925;BME280;61070;50.794;7.054;2022-09-09T04:12:27;100271.38;;;16.65;79.99
72925;BME280;61070;50.794;7.054;2022-09-09T04:14:52;100273.91;;;16.69;79.53
72925;BME280;61070;50.794;7.054;2022-09-09T04:17:17;100277.38;;;16.71;79.93
72925;BME280;61070;50.794;7.054;2022-09-09T04:19:43;100282.81;;;16.70;80.09
72925;BME280;61070;50.794;7.054;2022-09-09T04:22:08;100279.38;;;16.66;80.70
72925;BME280;61070;50.794;7.054;2022-09-09T04:24:33;100282.09;;;16.65;80.68
72925;BME280;61070;50.794;7.054;2022-09-09T04:27:00;100285.59;;;16.67;80.47
72925;BME280;61070;50.794;7.054;2022-09-09T04:29:25;100288.22;;;16.68;80.39
72925;BME280;61070;50.794;7.054;2022-09-09T04:31:50;100289.03;;;16.70;80.46
72925;BME280;61070;50.794;7.054;2022-09-09T04:34:15;100295.16;;;16.72;80.36
72925;BME280;61070;50.794;7.054;2022-09-09T04:36:41;100292.41;;;16.74;80.18
72925;BME280;61070;50.794;7.054;2022-09-09T04:39:06;100280.91;;;16.72;80.48
72925;BME280;61070;50.794;7.054;2022-09-09T04:41:32;100282.00;;;16.68;80.66
72925;BME280;61070;50.794;7.054;2022-09-09T04:43:57;100289.19;;;16.66;80.95
72925;BME280;61070;50.794;7.054;2022-09-09T04:46:23;100295.88;;;16.76;79.77
72925;BME280;61070;50.794;7.054;2022-09-09T04:48:49;100294.91;;;16.78;79.84
72925;BME280;61070;50.794;7.054;2022-09-09T04:51:15;100306.81;;;16.71;79.93
72925;BME280;61070;50.794;7.054;2022-09-09T04:53:40;100299.78;;;16.69;79.82
72925;BME280;61070;50.794;7.054;2022-09-09T04:56:13;100303.25;;;16.71;79.89
72925;BME280;61070;50.794;7.054;2022-09-09T04:58:39;100304.31;;;16.67;80.11
72925;BME280;61070;50.794;7.054;2022-09-09T05:01:09;100306.00;;;16.69;80.27
72925;BME280;61070;50.794;7.054;2022-09-09T05:03:35;100295.25;;;16.71;79.80
72925;BME280;61070;50.794;7.054;2022-09-09T05:06:08;100296.03;;;16.73;79.30
72925;BME280;61070;50.794;7.054;2022-09-09T05:08:36;100294.63;;;16.84;78.69
72925;BME280;61070;50.794;7.054;2022-09-09T05:11:03;100298.09;;;16.86;78.48
72925;BME280;61070;50.794;7.054;2022-09-09T05:13:29;100302.31;;;16.92;78.14
72925;BME280;61070;50.794;7.054;2022-09-09T05:15:56;100299.41;;;16.78;78.58
72925;BME280;61070;50.794;7.054;2022-09-09T05:18:21;100297.69;;;16.75;79.00
72925;BME280;61070;50.794;7.054;2022-09-09T05:20:47;100298.97;;;16.87;78.30
72925;BME280;61070;50.794;7.054;2022-09-09T05:23:13;100296.75;;;16.97;77.49
72925;BME280;61070;50.794;7.054;2022-09-09T05:25:38;100298.31;;;16.82;77.86
72925;BME280;61070;50.794;7.054;2022-09-09T05:28:03;100297.22;;;16.86;78.28
72925;BME280;61070;50.794;7.054;2022-09-09T05:30:29;100295.38;;;16.88;77.90
72925;BME280;61070;50.794;7.054;2022-09-09T05:32:57;100299.09;;;16.84;78.06
72925;BME280;61070;50.794;7.054;2022-09-09T05:35:22;100303.59;;;16.83;77.80
72925;BME280;61070;50.794;7.054;2022-09-09T05:37:48;100306.56;;;16.77;77.95
72925;BME280;61070;50.794;7.054;2022-09-09T05:40:13;100303.59;;;16.83;77.70
72925;BME280;61070;50.794;7.054;2022-09-09T05:42:39;100305.41;;;16.83;77.31
72925;BME280;61070;50.794;7.054;2022-09-09T05:45:06;100299.41;;;16.78;77.43
72925;BME280;61070;50.794;7.054;2022-09-09T05:47:33;100300.13;;;16.81;77.75
72925;BME280;61070;50.794;7.054;2022-09-09T05:49:58;100302.72;;;16.83;77.33
72925;BME280;61070;50.794;7.054;2022-09-09T05:52:23;100302.88;;;16.80;77.02
72925;BME280;61070;50.794;7.054;2022-09-09T05:54:50;100302.47;;;16.89;77.26
72925;BME280;61070;50.794;7.054;2022-09-09T05:57:16;100300.03;;;16.83;77.09
72925;BME280;61070;50.794;7.054;2022-09-09T05:59:41;100302.91;;;16.99;76.47
72925;BME280;61070;50.794;7.054;2022-09-09T06:02:08;100304.06;;;16.93;76.59
72925;BME280;61070;50.794;7.054;2022-09-09T06:04:34;100306.31;;;17.02;76.01
72925;BME280;61070;50.794;7.054;2022-09-09T06:07:00;100308.94;;;17.04;76.22
72925;BME280;61070;50.794;7.054;2022-09-09T06:09:26;100305.63;;;17.17;75.44
72925;BME280;61070;50.794;7.054;2022-09-09T06:11:51;100314.44;;;17.20;75.49
72925;BME280;61070;50.794;7.054;2022-09-09T06:14:16;100307.25;;;17.22;75.40
72925;BME280;61070;50.794;7.054;2022-09-09T06:16:43;100317.72;;;17.26;75.15
72925;BME280;61070;50.794;7.054;2022-09-09T06:19:09;100310.22;;;17.34;74.44
72925;BME280;61070;50.794;7.054;2022-09-09T06:21:36;100312.53;;;17.42;74.46
72925;BME280;61070;50.794;7.054;2022-09-09T06:24:02;100305.59;;;17.38;75.03
72925;BME280;61070;50.794;7.054;2022-09-09T06:26:30;100300.16;;;17.39;74.52
72925;BME280;61070;50.794;7.054;2022-09-09T06:28:57;100313.06;;;17.50;74.32
72925;BME280;61070;50.794;7.054;2022-09-09T06:31:25;100306.16;;;17.63;73.41
72925;BME280;61070;50.794;7.054;2022-09-09T06:33:53;100317.44;;;17.71;73.14
72925;BME280;61070;50.794;7.054;2022-09-09T06:36:21;100317.00;;;17.81;72.11
72925;BME280;61070;50.794;7.054;2022-09-09T06:38:47;100321.34;;;17.83;72.71
72925;BME280;61070;50.794;7.054;2022-09-09T06:41:15;100313.31;;;17.83;71.99
72925;BME280;61070;50.794;7.054;2022-09-09T06:43:41;100306.63;;;17.73;72.45
72925;BME280;61070;50.794;7.054;2022-09-09T06:46:10;100309.41;;;17.71;72.62
72925;BME280;61070;50.794;7.054;2022-09-09T06:48:36;100308.44;;;17.72;72.12
72925;BME280;61070;50.794;7.054;2022-09-09T06:51:05;100302.38;;;17.69;71.68
72925;BME280;61070;50.794;7.054;2022-09-09T06:53:32;100302.22;;;17.72;72.06
72925;BME280;61070;50.794;7.054;2022-09-09T06:56:02;100295.69;;;17.78;71.19
72925;BME280;61070;50.794;7.054;2022-09-09T06:58:42;100301.28;;;17.92;69.88
72925;BME280;61070;50.794;7.054;2022-09-09T07:01:13;100302.22;;;17.91;70.37
72925;BME280;61070;50.794;7.054;2022-09-09T07:03:39;100311.75;;;17.96;70.05
72925;BME280;61070;50.794;7.054;2022-09-09T07:06:06;100302.84;;;17.96;69.34
72925;BME280;61070;50.794;7.054;2022-09-09T07:08:32;100297.50;;;17.96;69.59
72925;BME280;61070;50.794;7.054;2022-09-09T07:11:03;100289.38;;;17.97;69.75
72925;BME280;61070;50.794;7.054;2022-09-09T07:13:32;100291.53;;;18.08;68.81
72925;BME280;61070;50.794;7.054;2022-09-09T07:16:09;100292.72;;;18.20;67.82
72925;BME280;61070;50.794;7.054;2022-09-09T07:18:35;100301.81;;;18.17;68.32
72925;BME280;61070;50.794;7.054;2022-09-09T07:21:01;100306.19;;;18.37;68.07
72925;BME280;61070;50.794;7.054;2022-09-09T07:23:27;100306.72;;;18.44;68.38
72925;BME280;61070;50.794;7.054;2022-09-09T07:25:52;100308.16;;;18.51;67.22
72925;BME280;61070;50.794;7.054;2022-09-09T07:28:21;100310.50;;;18.57;65.51
72925;BME280;61070;50.794;7.054;2022-09-09T07:30:58;100308.63;;;18.59;65.00
72925;BME280;61070;50.794;7.054;2022-09-09T07:33:25;100316.44;;;18.63;64.32
72925;BME280;61070;50.794;7.054;2022-09-09T07:35:51;100316.31;;;18.67;62.74
72925;BME280;61070;50.794;7.054;2022-09-09T07:38:17;100326.09;;;18.85;63.48
72925;BME280;61070;50.794;7.054;2022-09-09T07:40:43;100326.66;;;18.92;62.33
72925;BME280;61070;50.794;7.054;2022-09-09T07:43:09;100330.00;;;19.12;62.17
72925;BME280;61070;50.794;7.054;2022-09-09T07:45:34;100335.53;;;19.09;61.78
72925;BME280;61070;50.794;7.054;2022-09-09T07:48:00;100328.28;;;19.11;61.26
72925;BME280;61070;50.794;7.054;2022-09-09T07:50:25;100337.38;;;19.09;62.23
72925;BME280;61070;50.794;7.054;2022-09-09T07:52:51;100339.25;;;19.07;61.55
72925;BME280;61070;50.794;7.054;2022-09-09T07:55:17;100354.03;;;19.15;62.34
72925;BME280;61070;50.794;7.054;2022-09-09T07:57:42;100345.50;;;19.07;62.41
72925;BME280;61070;50.794;7.054;2022-09-09T08:00:08;100350.69;;;19.10;61.84
72925;BME280;61070;50.794;7.054;2022-09-09T08:02:35;100343.41;;;19.30;61.54
72925;BME280;61070;50.794;7.054;2022-09-09T08:05:00;100348.81;;;19.12;60.55
72925;BME280;61070;50.794;7.054;2022-09-09T08:07:26;100339.88;;;19.12;60.52
72925;BME280;61070;50.794;7.054;2022-09-09T08:09:51;100354.16;;;19.12;61.18
72925;BME280;61070;50.794;7.054;2022-09-09T08:12:16;100351.09;;;19.20;61.09
72925;BME280;61070;50.794;7.054;2022-09-09T08:14:42;100347.91;;;19.29;61.36
72925;BME280;61070;50.794;7.054;2022-09-09T08:17:07;100345.94;;;19.33;61.02
72925;BME280;61070;50.794;7.054;2022-09-09T08:19:32;100337.94;;;19.48;60.48
72925;BME280;61070;50.794;7.054;2022-09-09T08:22:02;100339.25;;;19.57;60.90
72925;BME280;61070;50.794;7.054;2022-09-09T08:24:28;100343.53;;;19.61;60.69
72925;BME280;61070;50.794;7.054;2022-09-09T08:26:53;100339.44;;;19.70;60.26
72925;BME280;61070;50.794;7.054;2022-09-09T08:29:19;100349.44;;;19.84;59.86
72925;BME280;61070;50.794;7.054;2022-09-09T08:31:46;100342.66;;;19.92;58.97
72925;BME280;61070;50.794;7.054;2022-09-09T08:34:13;100345.47;;;20.06;56.75
72925;BME280;61070;50.794;7.054;2022-09-09T08:36:41;100346.75;;;19.99;57.58
72925;BME280;61070;50.794;7.054;2022-09-09T08:39:08;100344.75;;;20.03;57.69
72925;BME280;61070;50.794;7.054;2022-09-09T08:44:32;100337.03;;;20.28;56.82
72925;BME280;61070;50.794;7.054;2022-09-09T08:55:45;100342.34;;;19.98;54.18
72925;BME280;61070;50.794;7.054;2022-09-09T08:58:24;100345.19;;;20.11;54.68
72925;BME280;61070;50.794;7.054;2022-09-09T09:06:24;100349.25;;;20.34;54.84
72925;BME280;61070;50.794;7.054;2022-09-09T09:09:07;100344.81;;;20.49;54.27
72925;BME280;61070;50.794;7.054;2022-09-09T09:11:49;100346.94;;;20.74;54.34
72925;BME280;61070;50.794;7.054;2022-09-09T09:14:26;100346.75;;;20.77;53.99
72925;BME280;61070;50.794;7.054;2022-09-09T09:17:00;100344.69;;;20.66;54.43
72925;BME280;61070;50.794;7.054;2022-09-09T09:19:27;100351.91;;;20.66;53.82
72925;BME280;61070;50.794;7.054;2022-09-09T09:22:09;100354.78;;;20.62;53.54
72925;BME280;61070;50.794;7.054;2022-09-09T09:27:10;100362.00;;;20.46;54.13
72925;BME280;61070;50.794;7.054;2022-09-09T09:29:37;100361.41;;;20.25;53.94
72925;BME280;61070;50.794;7.054;2022-09-09T09:32:04;100357.41;;;20.32;54.27
72925;BME280;61070;50.794;7.054;2022-09-09T09:34:30;100359.84;;;20.53;54.06
72925;BME280;61070;50.794;7.054;2022-09-09T09:36:57;100358.50;;;20.60;54.01
72925;BME280;61070;50.794;7.054;2022-09-09T09:39:29;100356.00;;;20.73;53.09
72925;BME280;61070;50.794;7.054;2022-09-09T09:41:55;100356.75;;;20.75;52.47
72925;BME280;61070;50.794;7.054;2022-09-09T09:44:30;100349.81;;;20.71;52.72
72925;BME280;61070;50.794;7.054;2022-09-09T09:47:11;100348.84;;;20.72;51.59
72925;BME280;61070;50.794;7.054;2022-09-09T09:49:37;100346.09;;;20.57;52.13
72925;BME280;61070;50.794;7.054;2022-09-09T09:52:04;100341.81;;;20.69;51.89
72925;BME280;61070;50.794;7.054;2022-09-09T09:54:33;100346.94;;;20.74;51.74
72925;BME280;61070;50.794;7.054;2022-09-09T09:57:16;100355.59;;;20.79;51.39
72925;BME280;61070;50.794;7.054;2022-09-09T09:59:43;100348.63;;;20.90;50.49
72925;BME280;61070;50.794;7.054;2022-09-09T10:04:36;100352.41;;;21.02;51.53
72925;BME280;61070;50.794;7.054;2022-09-09T10:07:15;100343.00;;;21.09;50.79
72925;BME280;61070;50.794;7.054;2022-09-09T10:09:42;100350.56;;;21.17;50.10
72925;BME280;61070;50.794;7.054;2022-09-09T10:12:30;100347.63;;;21.07;50.61
72925;BME280;61070;50.794;7.054;2022-09-09T10:18:31;100338.50;;;21.38;49.66
72925;BME280;61070;50.794;7.054;2022-09-09T10:21:12;100343.06;;;21.52;49.56
72925;BME280;61070;50.794;7.054;2022-09-09T10:32:01;100338.47;;;21.10;50.06
72925;BME280;61070;50.794;7.054;2022-09-09T10:39:53;100340.25;;;20.95;51.19
72925;BME280;61070;50.794;7.054;2022-09-09T10:42:26;100332.03;;;21.12;50.48
72925;BME280;61070;50.794;7.054;2022-09-09T10:45:17;100337.59;;;21.09;50.80
72925;BME280;61070;50.794;7.054;2022-09-09T10:48:20;100337.19;;;21.31;50.60
72925;BME280;61070;50.794;7.054;2022-09-09T10:53:38;100325.13;;;21.79;49.46
72925;BME280;61070;50.794;7.054;2022-09-09T10:56:10;100333.16;;;21.94;49.50
72925;BME280;61070;50.794;7.054;2022-09-09T10:58:48;100329.31;;;22.12;48.61
72925;BME280;61070;50.794;7.054;2022-09-09T11:01:29;100330.47;;;22.08;48.50
72925;BME280;61070;50.794;7.054;2022-09-09T11:04:02;100321.03;;;22.01;48.81
72925;BME280;61070;50.794;7.054;2022-09-09T11:06:37;100327.94;;;22.05;48.30
72925;BME280;61070;50.794;7.054;2022-09-09T11:09:05;100328.34;;;21.99;48.32
72925;BME280;61070;50.794;7.054;2022-09-09T11:11:43;100307.00;;;21.82;47.79
72925;BME280;61070;50.794;7.054;2022-09-09T11:14:19;100327.66;;;21.95;48.20
72925;BME280;61070;50.794;7.054;2022-09-09T11:16:52;100316.81;;;21.83;47.87
72925;BME280;61070;50.794;7.054;2022-09-09T11:22:27;100321.22;;;21.98;47.34
72925;BME280;61070;50.794;7.054;2022-09-09T11:25:05;100317.16;;;22.05;48.13
72925;BME280;61070;50.794;7.054;2022-09-09T11:36:33;100316.44;;;21.89;47.03
72925;BME280;61070;50.794;7.054;2022-09-09T11:39:15;100313.72;;;21.74;47.78
72925;BME280;61070;50.794;7.054;2022-09-09T11:41:42;100315.75;;;21.85;47.80
72925;BME280;61070;50.794;7.054;2022-09-09T11:44:12;100305.97;;;21.70;47.58
72925;BME280;61070;50.794;7.054;2022-09-09T11:46:40;100310.44;;;21.84;48.47
72925;BME280;61070;50.794;7.054;2022-09-09T11:49:25;100301.56;;;21.96;47.59
72925;BME280;61070;50.794;7.054;2022-09-09T11:51:51;100301.56;;;22.10;47.36
72925;BME280;61070;50.794;7.054;2022-09-09T11:56:54;100302.16;;;22.55;46.20
72925;BME280;61070;50.794;7.054;2022-09-09T12:09:22;100308.19;;;22.04;46.92
72925;BME280;61070;50.794;7.054;2022-09-09T12:11:51;100306.94;;;21.96;47.87
72925;BME280;61070;50.794;7.054;2022-09-09T12:14:43;100300.19;;;21.76;47.55
72925;BME280;61070;50.794;7.054;2022-09-09T12:17:20;100301.75;;;21.93;47.06
72925;BME280;61070;50.794;7.054;2022-09-09T12:19:46;100298.66;;;22.13;46.55
72925;BME280;61070;50.794;7.054;2022-09-09T12:25:16;100306.88;;;22.12;45.72
72925;BME280;61070;50.794;7.054;2022-09-09T12:28:01;100297.50;;;22.03;46.59
72925;BME280;61070;50.794;7.054;2022-09-09T12:30:39;100303.97;;;22.00;46.95
72925;BME280;61070;50.794;7.054;2022-09-09T12:33:12;100298.97;;;21.94;46.58
72925;BME280;61070;50.794;7.054;2022-09-09T12:35:43;100296.88;;;21.85;46.16
72925;BME280;61070;50.794;7.054;2022-09-09T12:38:16;100296.88;;;21.85;46.96
72925;BME280;61070;50.794;7.054;2022-09-09T12:40:54;100290.91;;;21.80;46.51
72925;BME280;61070;50.794;7.054;2022-09-09T12:43:23;100294.97;;;21.87;45.74
72925;BME280;61070;50.794;7.054;2022-09-09T12:46:00;100293.84;;;22.04;46.25
72925;BME280;61070;50.794;7.054;2022-09-09T12:48:33;100284.00;;;22.03;46.57
72925;BME280;61070;50.794;7.054;2022-09-09T12:51:00;100287.56;;;22.18;46.97
72925;BME280;61070;50.794;7.054;2022-09-09T12:53:33;100287.88;;;22.13;46.57
72925;BME280;61070;50.794;7.054;2022-09-09T12:56:06;100283.84;;;22.06;46.72
72925;BME280;61070;50.794;7.054;2022-09-09T12:58:38;100277.81;;;21.88;46.56
72925;BME280;61070;50.794;7.054;2022-09-09T13:01:05;100281.41;;;21.60;47.86
72925;BME280;61070;50.794;7.054;2022-09-09T13:03:32;100285.06;;;21.59;47.34
72925;BME280;61070;50.794;7.054;2022-09-09T13:06:10;100271.44;;;21.34;48.60
72925;BME280;61070;50.794;7.054;2022-09-09T13:08:37;100277.56;;;21.21;48.84
72925;BME280;61070;50.794;7.054;2022-09-09T13:11:06;100279.88;;;21.13;49.34
72925;BME280;61070;50.794;7.054;2022-09-09T13:13:37;100282.47;;;21.15;49.75
72925;BME280;61070;50.794;7.054;2022-09-09T13:16:06;100275.31;;;21.30;50.90
72925;BME280;61070;50.794;7.054;2022-09-09T13:18:37;100273.63;;;21.27;49.46
72925;BME280;61070;50.794;7.054;2022-09-09T13:21:05;100276.06;;;21.32;49.41
72925;BME280;61070;50.794;7.054;2022-09-09T13:23:33;100272.66;;;21.57;49.08
72925;BME280;61070;50.794;7.054;2022-09-09T13:26:02;100278.16;;;21.96;48.82
72925;BME280;61070;50.794;7.054;2022-09-09T13:28:30;100275.34;;;22.12;48.21
72925;BME280;61070;50.794;7.054;2022-09-09T13:31:02;100275.25;;;22.14;48.37
72925;BME280;61070;50.794;7.054;2022-09-09T13:33:38;100272.78;;;22.23;48.19
72925;BME280;61070;50.794;7.054;2022-09-09T13:36:11;100270.66;;;22.41;47.88
72925;BME280;61070;50.794;7.054;2022-09-09T13:38:54;100267.59;;;22.60;47.62
72925;BME280;61070;50.794;7.054;2022-09-09T13:41:23;100267.34;;;22.90;47.01
72925;BME280;61070;50.794;7.054;2022-09-09T13:43:50;100267.56;;;23.12;46.70
72925;BME280;61070;50.794;7.054;2022-09-09T13:46:39;100267.47;;;22.88;47.29
72925;BME280;61070;50.794;7.054;2022-09-09T13:51:39;100269.81;;;22.93;46.46
72925;BME280;61070;50.794;7.054;2022-09-09T13:54:06;100275.50;;;22.76;47.53
72925;BME280;61070;50.794;7.054;2022-09-09T13:56:35;100275.44;;;22.50;48.69
72925;BME280;61070;50.794;7.054;2022-09-09T13:59:03;100263.63;;;22.26;48.62
72925;BME280;61070;50.794;7.054;2022-09-09T14:01:29;100278.25;;;21.95;50.53
72925;BME280;61070;50.794;7.054;2022-09-09T14:03:55;100267.34;;;21.69;50.70
72925;BME280;61070;50.794;7.054;2022-09-09T14:06:20;100267.66;;;21.92;51.60
72925;BME280;61070;50.794;7.054;2022-09-09T14:08:50;100265.72;;;22.08;50.73
72925;BME280;61070;50.794;7.054;2022-09-09T14:11:16;100268.97;;;22.13;51.01
72925;BME280;61070;50.794;7.054;2022-09-09T14:13:41;100254.34;;;22.03;51.13
72925;BME280;61070;50.794;7.054;2022-09-09T14:16:07;100270.63;;;22.01;50.87
72925;BME280;61070;50.794;7.054;2022-09-09T14:18:32;100272.63;;;21.71;51.68
72925;BME280;61070;50.794;7.054;2022-09-09T14:20:58;100274.78;;;21.93;52.05
72925;BME280;61070;50.794;7.054;2022-09-09T14:23:24;100277.72;;;22.17;51.08
72925;BME280;61070;50.794;7.054;2022-09-09T14:25:50;100261.84;;;22.12;51.56
72925;BME280;61070;50.794;7.054;2022-09-09T14:28:16;100263.16;;;22.19;51.31
72925;BME280;61070;50.794;7.054;2022-09-09T14:30:43;100269.06;;;22.38;50.89
72925;BME280;61070;50.794;7.054;2022-09-09T14:33:13;100253.81;;;22.25;50.91
72925;BME280;61070;50.794;7.054;2022-09-09T14:35:39;100256.19;;;22.29;51.29
72925;BME280;61070;50.794;7.054;2022-09-09T14:38:05;100255.63;;;22.24;51.29
72925;BME280;61070;50.794;7.054;2022-09-09T14:40:31;100260.97;;;22.51;50.21
72925;BME280;61070;50.794;7.054;2022-09-09T14:42:56;100259.09;;;22.66;48.98
72925;BME280;61070;50.794;7.054;2022-09-09T14:45:23;100255.13;;;23.22;48.47
72925;BME280;61070;50.794;7.054;2022-09-09T14:47:50;100263.00;;;23.26;49.07
72925;BME280;61070;50.794;7.054;2022-09-09T14:50:16;100254.16;;;23.11;48.83